createdAt,value
2023-07-14T00:00:56.865Z,99889.70
2023-07-14T00:03:46.222Z,99876.77
2023-07-14T00:06:36.956Z,99874.14
2023-07-14T00:09:27.024Z,99871.67
2023-07-14T00:12:15.664Z,99869.19
2023-07-14T00:15:04.655Z,99878.36
2023-07-14T00:17:58.431Z,99889.91
2023-07-14T00:20:49.266Z,99894.73
2023-07-14T00:23:38.067Z,99894.05
2023-07-14T00:26:27.623Z,99890.79
2023-07-14T00:29:31.470Z,99895.09
2023-07-14T00:32:21.370Z,99907.20
2023-07-14T00:35:20.222Z,99919.21
2023-07-14T00:38:09.370Z,99912.88
2023-07-14T00:40:57.731Z,99913.02
2023-07-14T00:43:49.876Z,99907.02
2023-07-14T00:46:38.802Z,99905.38
2023-07-14T00:49:36.520Z,99901.65
2023-07-14T00:52:29.297Z,99896.45
2023-07-14T00:55:36.590Z,99890.77
2023-07-14T00:58:26.243Z,99897.30
2023-07-14T01:01:23.606Z,99900.97
2023-07-14T01:04:12.117Z,99904.30
2023-07-14T01:07:00.098Z,99904.04
2023-07-14T01:09:48.942Z,99918.33
2023-07-14T01:12:38.521Z,99923.98
2023-07-14T01:15:26.796Z,99920.75
2023-07-14T01:18:15.423Z,99924.77
2023-07-14T01:21:03.349Z,99929.38
2023-07-14T01:23:59.435Z,99928.06
2023-07-14T01:27:05.840Z,99935.77
2023-07-14T01:29:54.465Z,99931.61
2023-07-14T01:32:45.228Z,99933.60
2023-07-14T01:35:36.597Z,99932.97
2023-07-14T01:38:25.413Z,99933.19
2023-07-14T01:41:14.074Z,99929.44
2023-07-14T01:44:04.113Z,99926.17
2023-07-14T01:46:52.502Z,99923.58
2023-07-14T01:49:44.143Z,99908.48
2023-07-14T01:52:32.441Z,99904.39
2023-07-14T01:55:22.023Z,99905.29
2023-07-14T01:58:17.715Z,99901.88
2023-07-14T02:01:05.488Z,99900.23
2023-07-14T02:03:55.128Z,99897.88
2023-07-14T02:06:44.005Z,99896.89
2023-07-14T02:09:32.073Z,99897.42
2023-07-14T02:12:29.291Z,99900.70
2023-07-14T02:15:18.967Z,99904.19
2023-07-14T02:18:10.836Z,99902.30
2023-07-14T02:20:59.086Z,99899.35
2023-07-14T02:23:47.211Z,99893.92
2023-07-14T02:26:37.121Z,99894.48
2023-07-14T02:29:26.329Z,99893.09
2023-07-14T02:32:32.905Z,99897.85
2023-07-14T02:35:30.807Z,99890.59
2023-07-14T02:38:19.141Z,99888.22
2023-07-14T02:41:37.913Z,99894.25
2023-07-14T02:44:33.997Z,99898.29
2023-07-14T02:47:23.593Z,99894.00
2023-07-14T02:50:12.028Z,99898.91
2023-07-14T02:53:00.885Z,99898.50
2023-07-14T02:55:49.451Z,99893.91
2023-07-14T02:58:37.639Z,99896.79
2023-07-14T03:01:26.391Z,99901.25
2023-07-14T03:04:14.614Z,99905.27
2023-07-14T03:07:03.301Z,99904.90
2023-07-14T03:09:51.862Z,99905.91
2023-07-14T03:12:40.199Z,99909.00
2023-07-14T03:15:28.839Z,99905.16
2023-07-14T03:18:17.378Z,99901.23
2023-07-14T03:21:05.806Z,99899.86
2023-07-14T03:23:54.558Z,99901.15
2023-07-14T03:26:42.823Z,99897.91
2023-07-14T03:29:31.320Z,99900.85
2023-07-14T03:32:19.612Z,99910.11
2023-07-14T03:35:08.368Z,99918.10
2023-07-14T03:37:56.661Z,99920.50
2023-07-14T03:40:45.044Z,99927.92
2023-07-14T03:43:35.752Z,99935.74
2023-07-14T03:46:24.283Z,99934.95
2023-07-14T03:49:13.760Z,99932.60
2023-07-14T03:52:01.463Z,99933.94
2023-07-14T03:54:52.452Z,99934.88
2023-07-14T04:00:34.061Z,99939.21
2023-07-14T04:03:22.379Z,99942.60
2023-07-14T04:06:10.716Z,99946.50
2023-07-14T04:09:00.376Z,99951.02
2023-07-14T04:11:52.452Z,99958.95
2023-07-14T04:14:41.241Z,99958.60
2023-07-14T04:17:30.121Z,99949.81
2023-07-14T04:20:18.265Z,99952.75
2023-07-14T04:23:06.277Z,99956.61
2023-07-14T04:25:54.938Z,99950.19
2023-07-14T04:28:43.313Z,99956.98
2023-07-14T04:31:31.805Z,99968.96
2023-07-14T04:34:20.139Z,99976.80
2023-07-14T04:37:08.585Z,99974.07
2023-07-14T04:39:58.500Z,99973.21
2023-07-14T04:42:48.279Z,99975.44
2023-07-14T04:45:46.580Z,99977.60
2023-07-14T04:48:35.744Z,99983.77
2023-07-14T04:51:23.710Z,99988.61
2023-07-14T04:54:11.716Z,99988.30
2023-07-14T04:57:00.066Z,99993.23
2023-07-14T04:59:47.917Z,99995.96
2023-07-14T05:02:37.816Z,99997.41
2023-07-14T05:05:27.069Z,99995.80
2023-07-14T05:08:15.428Z,99986.81
2023-07-14T05:11:03.872Z,99984.04
2023-07-14T05:13:52.893Z,99982.95
2023-07-14T05:16:41.221Z,99980.77
2023-07-14T05:19:29.933Z,99973.80
2023-07-14T05:22:17.878Z,99972.48
2023-07-14T05:25:06.622Z,99970.30
2023-07-14T05:27:54.855Z,99969.83
2023-07-14T05:30:43.260Z,99971.99
2023-07-14T05:33:31.356Z,99969.59
2023-07-14T05:36:20.249Z,99962.48
2023-07-14T05:39:08.568Z,99958.91
2023-07-14T05:41:59.673Z,99944.64
2023-07-14T05:44:47.728Z,99953.63
2023-07-14T05:47:37.931Z,99955.04
2023-07-14T05:50:25.866Z,99956.63
2023-07-14T05:53:15.641Z,99959.61
2023-07-14T05:56:04.687Z,99976.64
2023-07-14T05:58:52.598Z,99988.69
2023-07-14T06:01:40.738Z,100000.58
2023-07-14T06:04:30.848Z,100014.89
2023-07-14T06:07:19.305Z,100026.11
2023-07-14T06:10:08.357Z,100030.23
2023-07-14T06:12:56.644Z,100029.69
2023-07-14T06:15:50.447Z,100034.13
2023-07-14T06:18:39.104Z,100040.30
2023-07-14T06:21:27.767Z,100049.10
2023-07-14T06:24:16.080Z,100053.68
2023-07-14T06:27:07.964Z,100048.85
2023-07-14T06:29:59.802Z,100050.77
2023-07-14T06:32:49.242Z,100048.22
2023-07-14T06:35:38.170Z,100047.74
2023-07-14T06:38:27.450Z,100043.21
2023-07-14T06:41:15.807Z,100038.25
2023-07-14T06:44:19.766Z,100030.96
2023-07-14T06:47:56.814Z,100021.05
2023-07-14T06:51:29.922Z,100016.09
2023-07-14T06:55:02.610Z,100023.15
2023-07-14T06:58:35.011Z,100036.39
2023-07-14T07:02:08.047Z,100041.45
2023-07-14T07:05:22.013Z,100043.48
2023-07-14T07:08:57.544Z,100041.30
2023-07-14T07:12:32.628Z,100043.30
2023-07-14T07:16:07.091Z,100044.14
2023-07-14T07:19:45.400Z,100042.66
2023-07-14T07:23:20.669Z,100044.43
2023-07-14T07:26:55.812Z,100045.36
2023-07-14T07:30:32.271Z,100050.17
2023-07-14T07:34:09.360Z,100051.40
2023-07-14T07:37:43.975Z,100052.72
2023-07-14T07:41:18.943Z,100052.36
2023-07-14T07:44:54.477Z,100061.86
2023-07-14T07:48:29.278Z,100066.24
2023-07-14T07:52:30.800Z,100075.98
2023-07-14T07:56:29.742Z,100080.35
2023-07-14T08:00:31.483Z,100084.69
2023-07-14T08:04:30.862Z,100092.13
2023-07-14T08:08:32.521Z,100096.13
2023-07-14T08:12:31.990Z,100103.23
2023-07-14T08:16:33.956Z,100101.77
2023-07-14T08:20:32.874Z,100102.10
2023-07-14T08:24:35.053Z,100099.77
2023-07-14T08:28:34.137Z,100101.59
2023-07-14T08:32:35.940Z,100104.10
2023-07-14T08:36:34.946Z,100108.11
2023-07-14T08:40:36.796Z,100111.44
2023-07-14T08:44:38.603Z,100112.76
2023-07-14T08:48:41.596Z,100114.83
2023-07-14T08:52:41.077Z,100119.71
2023-07-14T08:56:45.634Z,100126.14
2023-07-14T09:00:44.778Z,100137.67
2023-07-14T09:04:46.377Z,100145.02
2023-07-14T09:08:45.900Z,100146.29
2023-07-14T09:12:46.716Z,100148.62
2023-07-14T09:16:45.976Z,100151.70
2023-07-14T09:20:48.393Z,100153.13
2023-07-14T09:24:46.917Z,100150.69
2023-07-14T09:28:49.360Z,100151.50
2023-07-14T09:32:47.856Z,100154.44
2023-07-14T09:36:45.773Z,100157.95
2023-07-14T09:40:47.982Z,100167.61
2023-07-14T09:44:48.902Z,100174.83
2023-07-14T09:48:50.421Z,100172.70
2023-07-14T09:52:48.925Z,100181.47
2023-07-14T09:56:51.353Z,100186.03
2023-07-14T10:00:51.044Z,100188.45
2023-07-14T10:04:53.960Z,100193.58
2023-07-14T10:08:53.993Z,100195.70
2023-07-14T10:12:55.800Z,100192.05
2023-07-14T10:16:54.013Z,100194.49
2023-07-14T10:20:56.943Z,100199.80
2023-07-14T10:24:56.060Z,100200.48
2023-07-14T10:28:59.709Z,100193.84
2023-07-14T10:32:57.065Z,100190.92
2023-07-14T10:36:58.634Z,100193.47
2023-07-14T10:40:56.965Z,100180.65
2023-07-14T10:45:08.002Z,100180.14
2023-07-14T10:49:08.952Z,100177.30
2023-07-14T10:53:07.001Z,100174.02
2023-07-14T10:57:08.955Z,100174.14
2023-07-14T11:01:06.946Z,100177.86
2023-07-14T11:05:08.745Z,100181.14
2023-07-14T11:09:07.120Z,100180.13
2023-07-14T11:13:09.180Z,100179.32
2023-07-14T11:17:07.079Z,100176.67
2023-07-14T11:21:08.643Z,100175.35
2023-07-14T11:25:07.245Z,100180.64
2023-07-14T11:29:08.640Z,100179.98
2023-07-14T11:33:07.120Z,100178.20
2023-07-14T11:37:08.678Z,100183.53
2023-07-14T11:41:05.965Z,100191.09
2023-07-14T11:45:07.029Z,100191.80
2023-07-14T11:49:05.120Z,100190.39
2023-07-14T11:53:07.257Z,100187.57
2023-07-14T11:57:05.252Z,100182.67
2023-07-14T12:01:06.739Z,100181.73
2023-07-14T12:05:05.156Z,100184.13
2023-07-14T12:09:07.119Z,100188.98
2023-07-14T12:13:05.247Z,100187.21
2023-07-14T12:17:06.782Z,100183.23
2023-07-14T12:21:05.182Z,100185.83
2023-07-14T12:25:07.885Z,100185.55
2023-07-14T12:29:07.478Z,100187.79
2023-07-14T12:33:09.369Z,100191.33
2023-07-14T12:37:08.406Z,100197.08
2023-07-14T12:41:08.510Z,100201.08
2023-07-14T12:45:04.422Z,100209.84
2023-07-14T12:49:04.425Z,100216.98
2023-07-14T12:53:00.246Z,100220.16
2023-07-14T12:57:00.011Z,100224.67
2023-07-14T13:00:55.395Z,100228.02
2023-07-14T13:04:55.540Z,100233.29
2023-07-14T13:08:52.461Z,100238.83
2023-07-14T13:12:52.040Z,100245.09
2023-07-14T13:16:47.714Z,100242.17
2023-07-14T13:20:48.126Z,100245.63
2023-07-14T13:24:44.371Z,100246.89
2023-07-14T13:28:45.834Z,100247.44
2023-07-14T13:32:26.466Z,100246.92
2023-07-14T13:36:22.743Z,100245.73
2023-07-14T13:40:22.248Z,100247.14
2023-07-14T13:44:18.496Z,100244.54
2023-07-14T13:48:18.091Z,100244.04
2023-07-14T13:52:14.421Z,100247.05
2023-07-14T13:56:14.440Z,100244.60
2023-07-14T14:00:10.874Z,100237.50
2023-07-14T14:04:10.538Z,100241.42
2023-07-14T14:08:07.873Z,100239.31
2023-07-14T14:12:08.441Z,100237.14
2023-07-14T14:16:07.129Z,100237.61
2023-07-14T14:20:06.690Z,100242.32
2023-07-14T14:24:03.532Z,100242.55
2023-07-14T14:28:06.826Z,100245.02
2023-07-14T14:32:02.905Z,100248.95
2023-07-14T14:36:02.414Z,100245.88
2023-07-14T14:39:59.133Z,100248.26
2023-07-14T14:43:16.909Z,100252.70
2023-07-14T14:46:06.598Z,100254.53
2023-07-14T14:48:58.521Z,100252.46
2023-07-14T14:51:47.218Z,100258.02
2023-07-14T14:54:36.919Z,100258.23
2023-07-14T14:57:25.831Z,100257.71
2023-07-14T15:00:20.711Z,100261.59
2023-07-14T15:03:11.305Z,100257.02
2023-07-14T15:06:00.944Z,100258.92
2023-07-14T15:08:51.885Z,100262.73
2023-07-14T15:11:46.388Z,100263.90
2023-07-14T15:14:36.807Z,100265.05
2023-07-14T15:17:28.022Z,100272.58
2023-07-14T15:20:17.121Z,100276.79
2023-07-14T15:23:10.896Z,100278.70
2023-07-14T15:26:02.162Z,100274.55
2023-07-14T15:28:51.664Z,100280.15
2023-07-14T15:31:44.777Z,100277.52
2023-07-14T15:34:33.349Z,100279.73
2023-07-14T15:37:22.253Z,100285.06
2023-07-14T15:40:15.780Z,100283.88
2023-07-14T15:43:16.213Z,100286.11
2023-07-14T15:46:05.189Z,100290.02
2023-07-14T15:48:56.139Z,100287.51
2023-07-14T15:51:45.380Z,100290.52
2023-07-14T15:54:48.782Z,100295.46
2023-07-14T15:57:48.430Z,100299.34
2023-07-14T16:00:37.746Z,100301.77
2023-07-14T16:03:28.226Z,100307.00
2023-07-14T16:06:17.650Z,100311.79
2023-07-14T16:09:06.622Z,100313.98
2023-07-14T16:11:56.976Z,100317.88
2023-07-14T16:14:46.213Z,100319.30
2023-07-14T16:17:35.436Z,100323.09
2023-07-14T16:20:25.784Z,100328.97
2023-07-14T16:23:23.266Z,100329.61
2023-07-14T16:26:12.120Z,100329.79
2023-07-14T16:29:07.708Z,100331.46
2023-07-14T16:31:57.301Z,100333.13
2023-07-14T16:34:47.439Z,100335.15
2023-07-14T16:37:36.625Z,100336.31
2023-07-14T16:40:27.948Z,100338.63
2023-07-14T16:43:21.166Z,100342.91
2023-07-14T16:46:10.364Z,100346.80
2023-07-14T16:48:58.921Z,100350.80
2023-07-14T16:51:49.847Z,100356.86
2023-07-14T16:54:39.212Z,100359.92
2023-07-14T16:57:29.298Z,100363.85
2023-07-14T17:00:28.929Z,100368.30
2023-07-14T17:03:19.341Z,100366.58
2023-07-14T17:06:11.675Z,100367.27
2023-07-14T17:09:01.951Z,100372.86
2023-07-14T17:11:51.785Z,100373.75
2023-07-14T17:14:43.873Z,100372.17
2023-07-14T17:17:34.347Z,100374.97
2023-07-14T17:20:23.643Z,100379.48
2023-07-14T17:23:16.416Z,100388.79
2023-07-14T17:26:05.612Z,100388.56
2023-07-14T17:28:54.182Z,100388.33
2023-07-14T17:31:43.491Z,100395.55
2023-07-14T17:34:32.701Z,100399.77
2023-07-14T17:37:22.741Z,100398.78
2023-07-14T17:40:15.496Z,100404.52
2023-07-14T17:43:10.891Z,100410.02
2023-07-14T17:45:59.667Z,100411.07
2023-07-14T17:48:48.598Z,100413.66
2023-07-14T17:51:37.479Z,100413.30
2023-07-14T17:54:27.809Z,100411.27
2023-07-14T17:57:17.538Z,100413.09
2023-07-14T18:00:07.220Z,100419.06
2023-07-14T18:03:00.108Z,100426.36
2023-07-14T18:05:49.236Z,100425.25
2023-07-14T18:08:39.265Z,100427.59
2023-07-14T18:11:27.904Z,100432.84
2023-07-14T18:14:21.722Z,100438.20
2023-07-14T18:17:20.722Z,100441.27
2023-07-14T18:20:14.732Z,100447.00
2023-07-14T18:23:04.060Z,100449.23
2023-07-14T18:25:53.099Z,100448.03
2023-07-14T18:28:43.874Z,100446.13
2023-07-14T18:31:32.814Z,100449.40
2023-07-14T18:34:21.679Z,100449.71
2023-07-14T18:37:11.431Z,100454.77
2023-07-14T18:40:00.385Z,100460.00
2023-07-14T18:42:50.564Z,100463.61
2023-07-14T18:45:39.943Z,100466.20
2023-07-14T18:48:29.418Z,100467.17
2023-07-14T18:51:23.542Z,100468.84
2023-07-14T18:54:22.726Z,100468.70
2023-07-14T18:57:19.084Z,100475.83
2023-07-14T19:00:11.350Z,100477.00
2023-07-14T19:02:59.825Z,100478.10
2023-07-14T19:05:49.306Z,100482.38
2023-07-14T19:08:38.910Z,100485.56
2023-07-14T19:11:29.374Z,100486.29
2023-07-14T19:14:22.031Z,100492.61
2023-07-14T19:17:14.467Z,100496.13
2023-07-14T19:20:04.822Z,100499.64
2023-07-14T19:22:54.243Z,100497.10
2023-07-14T19:25:42.492Z,100500.95
2023-07-14T19:28:33.699Z,100503.90
2023-07-14T19:31:27.814Z,100501.77
2023-07-14T19:34:23.458Z,100507.16
2023-07-14T19:37:13.193Z,100504.83
2023-07-14T19:40:02.119Z,100505.15
2023-07-14T19:42:53.229Z,100504.13
2023-07-14T19:45:42.423Z,100502.50
2023-07-14T19:48:31.258Z,100506.58
2023-07-14T19:51:24.162Z,100511.96
2023-07-14T19:54:17.559Z,100508.19
2023-07-14T19:57:16.240Z,100508.59
2023-07-14T20:00:12.220Z,100513.01
2023-07-14T20:03:05.970Z,100512.39
2023-07-14T20:05:55.727Z,100512.86
2023-07-14T20:08:48.334Z,100518.41
2023-07-14T20:11:37.871Z,100515.34
2023-07-14T20:14:32.822Z,100512.83
2023-07-14T20:17:22.487Z,100520.05
2023-07-14T20:20:14.564Z,100521.47
2023-07-14T20:23:03.545Z,100526.20
2023-07-14T20:25:53.511Z,100521.94
2023-07-14T20:28:41.778Z,100526.17
2023-07-14T20:31:30.171Z,100531.21
2023-07-14T20:34:19.657Z,100531.03
2023-07-14T20:37:15.574Z,100533.27
2023-07-14T20:40:04.181Z,100536.77
2023-07-14T20:42:53.068Z,100542.64
2023-07-14T20:45:42.307Z,100541.91
2023-07-14T20:48:31.294Z,100538.54
2023-07-14T20:51:19.667Z,100545.06
2023-07-14T20:54:09.321Z,100545.58
2023-07-14T20:56:58.328Z,100544.73
2023-07-14T20:59:46.785Z,100548.30
2023-07-14T21:02:37.524Z,100545.10
2023-07-14T21:05:25.835Z,100545.39
2023-07-14T21:08:21.365Z,100549.44
2023-07-14T21:11:16.233Z,100550.91
2023-07-14T21:14:04.309Z,100552.10
2023-07-14T21:16:54.968Z,100551.77
2023-07-14T21:19:42.938Z,100550.92
2023-07-14T21:22:31.891Z,100554.09
2023-07-14T21:25:23.055Z,100557.58
2023-07-14T21:28:15.299Z,100556.92
2023-07-14T21:31:05.841Z,100552.92
2023-07-14T21:33:54.246Z,100553.03
2023-07-14T21:36:47.298Z,100550.15
2023-07-14T21:39:35.788Z,100552.51
2023-07-14T21:42:24.567Z,100555.31
2023-07-14T21:45:15.754Z,100556.76
2023-07-14T21:48:10.697Z,100557.04
2023-07-14T21:50:59.996Z,100559.46
2023-07-14T21:53:50.755Z,100554.48
2023-07-14T21:56:38.983Z,100550.44
2023-07-14T21:59:27.779Z,100552.02
2023-07-14T22:02:16.494Z,100553.65
2023-07-14T22:05:12.511Z,100548.92
2023-07-14T22:08:00.956Z,100548.45
2023-07-14T22:10:51.263Z,100546.05
2023-07-14T22:13:40.010Z,100549.43
2023-07-14T22:16:29.551Z,100547.38
2023-07-14T22:19:18.626Z,100549.82
2023-07-14T22:22:09.103Z,100548.70
2023-07-14T22:24:57.488Z,100550.59
2023-07-14T22:27:46.219Z,100545.27
2023-07-14T22:30:36.041Z,100546.21
2023-07-14T22:33:29.268Z,100544.20
2023-07-14T22:36:18.359Z,100548.17
2023-07-14T22:39:18.746Z,100549.28
2023-07-14T22:42:10.667Z,100548.81
2023-07-14T22:44:59.134Z,100548.80
2023-07-14T22:47:49.074Z,100552.94
2023-07-14T22:50:37.827Z,100550.27
2023-07-14T22:53:28.464Z,100550.83
2023-07-14T22:56:16.958Z,100551.35
2023-07-14T22:59:07.297Z,100555.21
2023-07-14T23:01:57.207Z,100554.34
2023-07-14T23:04:46.328Z,100554.73
2023-07-14T23:07:35.176Z,100554.39
2023-07-14T23:10:23.852Z,100554.64
2023-07-14T23:13:13.410Z,100551.66
2023-07-14T23:16:04.053Z,100553.55
2023-07-14T23:18:55.774Z,100550.45
2023-07-14T23:21:45.092Z,100548.99
2023-07-14T23:24:34.502Z,100549.23
2023-07-14T23:27:22.945Z,100548.83
2023-07-14T23:30:13.119Z,100550.11
2023-07-14T23:33:01.285Z,100549.33
2023-07-14T23:35:50.460Z,100549.68
2023-07-14T23:38:40.447Z,100552.64
2023-07-14T23:41:30.721Z,100554.66
2023-07-14T23:44:20.125Z,100556.80
2023-07-14T23:47:11.901Z,100556.30
2023-07-14T23:50:01.240Z,100561.67
2023-07-14T23:52:50.644Z,100559.10
2023-07-14T23:55:39.212Z,100559.52
2023-07-14T23:58:29.847Z,100563.98
